sensor_id;sensor_type;location;lat;lon;timestamp;pressure;altitude;pressure_sealevel;temperature;humidity
50250;BME280;36133;42.522;27.456;2023-02-14T00:01:50;102693.19;;;1.51;48.86
50250;BME280;36133;42.522;27.456;2023-02-14T00:04:17;102919.72;;;1.99;50.33
50250;BME280;36133;42.522;27.456;2023-02-14T00:06:43;102630.13;;;-0.06;51.12
50250;BME280;36133;42.522;27.456;2023-02-14T00:09:16;102904.97;;;1.03;52.63
50250;BME280;36133;42.522;27.456;2023-02-14T00:11:43;102718.34;;;-0.18;52.44
50250;BME280;36133;42.522;27.456;2023-02-14T00:14:09;102914.63;;;0.86;53.07
50250;BME280;36133;42.522;27.456;2023-02-14T00:16:54;102908.50;;;0.26;54.38
50250;BME280;36133;42.522;27.456;2023-02-14T00:19:22;102896.84;;;0.29;54.38
50250;BME280;36133;42.522;27.456;2023-02-14T00:21:48;102895.94;;;0.10;55.19
50250;BME280;36133;42.522;27.456;2023-02-14T00:24:20;102667.38;;;-1.06;55.18
50250;BME280;36133;42.522;27.456;2023-02-14T00:26:47;102929.47;;;0.33;56.84
50250;BME280;36133;42.522;27.456;2023-02-14T00:29:16;102942.63;;;0.36;57.13
50250;BME280;36133;42.522;27.456;2023-02-14T00:31:42;102865.06;;;0.07;57.99
50250;BME280;36133;42.522;27.456;2023-02-14T00:34:09;102742.25;;;-0.79;58.54
50250;BME280;36133;42.522;27.456;2023-02-14T00:36:34;102649.09;;;-0.92;58.42
50250;BME280;36133;42.522;27.456;2023-02-14T00:39:02;102661.56;;;-0.94;58.91
50250;BME280;36133;42.522;27.456;2023-02-14T00:41:28;102603.63;;;-1.45;59.33
50250;BME280;36133;42.522;27.456;2023-02-14T00:43:53;102583.53;;;-1.29;58.48
50250;BME280;36133;42.522;27.456;2023-02-14T00:46:21;102843.00;;;0.44;59.32
50250;BME280;36133;42.522;27.456;2023-02-14T00:49:04;102927.25;;;1.19;59.81
50250;BME280;36133;42.522;27.456;2023-02-14T00:51:29;102903.47;;;1.16;59.25
50250;BME280;36133;42.522;27.456;2023-02-14T00:53:55;102871.47;;;0.80;59.65
50250;BME280;36133;42.522;27.456;2023-02-14T00:56:20;102849.50;;;0.76;59.18
50250;BME280;36133;42.522;27.456;2023-02-14T00:58:46;102859.75;;;1.03;59.21
50250;BME280;36133;42.522;27.456;2023-02-14T01:01:13;102701.56;;;0.19;58.63
50250;BME280;36133;42.522;27.456;2023-02-14T01:03:39;102783.16;;;0.36;60.10
50250;BME280;36133;42.522;27.456;2023-02-14T01:06:04;102907.84;;;1.36;60.21
50250;BME280;36133;42.522;27.456;2023-02-14T01:08:31;102902.25;;;1.23;60.64
50250;BME280;36133;42.522;27.456;2023-02-14T01:10:56;102592.13;;;-0.83;61.74
50250;BME280;36133;42.522;27.456;2023-02-14T01:13:22;102874.91;;;0.82;62.00
50250;BME280;36133;42.522;27.456;2023-02-14T01:15:49;102634.59;;;-0.65;62.72
50250;BME280;36133;42.522;27.456;2023-02-14T01:18:16;102766.41;;;0.34;62.33
50250;BME280;36133;42.522;27.456;2023-02-14T01:20:42;102863.38;;;0.64;63.30
50250;BME280;36133;42.522;27.456;2023-02-14T01:23:08;102878.88;;;0.92;63.31
50250;BME280;36133;42.522;27.456;2023-02-14T01:25:36;102868.47;;;0.87;63.38
50250;BME280;36133;42.522;27.456;2023-02-14T01:28:03;102575.22;;;-1.01;63.24
50250;BME280;36133;42.522;27.456;2023-02-14T01:30:29;102780.38;;;0.39;63.20
50250;BME280;36133;42.522;27.456;2023-02-14T01:32:54;102877.22;;;0.71;63.37
50250;BME280;36133;42.522;27.456;2023-02-14T01:35:20;102826.75;;;0.69;63.24
50250;BME280;36133;42.522;27.456;2023-02-14T01:37:45;102730.56;;;0.05;62.98
50250;BME280;36133;42.522;27.456;2023-02-14T01:40:12;102840.22;;;0.85;62.58
50250;BME280;36133;42.522;27.456;2023-02-14T01:42:38;102807.56;;;0.81;61.15
50250;BME280;36133;42.522;27.456;2023-02-14T01:47:32;102844.44;;;0.70;60.88
50250;BME280;36133;42.522;27.456;2023-02-14T01:50:20;102809.44;;;0.79;60.16
50250;BME280;36133;42.522;27.456;2023-02-14T01:53:11;102801.91;;;0.70;59.69
50250;BME280;36133;42.522;27.456;2023-02-14T01:55:46;102810.88;;;0.86;59.85
50250;BME280;36133;42.522;27.456;2023-02-14T01:58:19;102816.47;;;0.99;59.12
50250;BME280;36133;42.522;27.456;2023-02-14T02:00:46;102812.91;;;1.17;58.49
50250;BME280;36133;42.522;27.456;2023-02-14T02:04:13;102771.19;;;1.53;56.36
50250;BME280;36133;42.522;27.456;2023-02-14T02:06:37;102811.03;;;2.55;54.46
50250;BME280;36133;42.522;27.456;2023-02-14T02:09:49;102788.28;;;1.99;54.43
50250;BME280;36133;42.522;27.456;2023-02-14T02:12:13;102812.31;;;2.15;54.09
50250;BME280;36133;42.522;27.456;2023-02-14T02:14:39;102480.38;;;-0.04;55.14
50250;BME280;36133;42.522;27.456;2023-02-14T02:27:43;102791.66;;;4.17;49.19
50250;BME280;36133;42.522;27.456;2023-02-14T02:39:28;102611.63;;;2.13;50.96
50250;BME280;36133;42.522;27.456;2023-02-14T02:45:11;102768.81;;;4.11;48.52
50250;BME280;36133;42.522;27.456;2023-02-14T02:50:33;102763.00;;;5.02;46.27
50250;BME280;36133;42.522;27.456;2023-02-14T02:53:30;102603.06;;;3.28;47.53
50250;BME280;36133;42.522;27.456;2023-02-14T02:56:07;102782.00;;;4.00;48.88
50250;BME280;36133;42.522;27.456;2023-02-14T02:59:03;102749.66;;;4.60;47.03
50250;BME280;36133;42.522;27.456;2023-02-14T03:01:35;102660.97;;;3.56;47.82
50250;BME280;36133;42.522;27.456;2023-02-14T03:04:05;102721.53;;;4.26;47.31
50250;BME280;36133;42.522;27.456;2023-02-14T03:06:50;102607.41;;;1.28;53.14
50250;BME280;36133;42.522;27.456;2023-02-14T03:11:58;102723.75;;;2.73;50.93
50250;BME280;36133;42.522;27.456;2023-02-14T03:14:55;102765.66;;;2.39;52.96
50250;BME280;36133;42.522;27.456;2023-02-14T03:17:36;102701.13;;;1.68;53.92
50250;BME280;36133;42.522;27.456;2023-02-14T03:20:14;102756.06;;;2.03;53.10
50250;BME280;36133;42.522;27.456;2023-02-14T03:22:51;102542.66;;;1.12;52.13
50250;BME280;36133;42.522;27.456;2023-02-14T03:25:24;102541.97;;;0.91;52.53
50250;BME280;36133;42.522;27.456;2023-02-14T03:30:57;102516.50;;;0.01;55.04
50250;BME280;36133;42.522;27.456;2023-02-14T03:33:28;102756.22;;;1.15;55.60
50250;BME280;36133;42.522;27.456;2023-02-14T03:36:15;102591.06;;;-0.04;55.97
50250;BME280;36133;42.522;27.456;2023-02-14T03:38:58;102579.25;;;-0.16;56.30
50250;BME280;36133;42.522;27.456;2023-02-14T03:41:27;102745.53;;;0.81;57.41
50250;BME280;36133;42.522;27.456;2023-02-14T03:43:57;102671.16;;;0.43;57.30
50250;BME280;36133;42.522;27.456;2023-02-14T03:46:29;102759.94;;;0.94;57.82
50250;BME280;36133;42.522;27.456;2023-02-14T03:48:58;102710.00;;;0.46;59.27
50250;BME280;36133;42.522;27.456;2023-02-14T03:51:26;102685.47;;;0.77;58.95
50250;BME280;36133;42.522;27.456;2023-02-14T03:53:59;102405.00;;;-1.09;58.98
50250;BME280;36133;42.522;27.456;2023-02-14T03:56:36;102732.38;;;0.78;59.96
50250;BME280;36133;42.522;27.456;2023-02-14T03:59:07;102516.63;;;-0.76;61.21
50250;BME280;36133;42.522;27.456;2023-02-14T04:01:39;102607.66;;;0.01;61.09
50250;BME280;36133;42.522;27.456;2023-02-14T04:04:07;102477.53;;;-0.92;61.89
50250;BME280;36133;42.522;27.456;2023-02-14T04:06:34;102703.16;;;0.59;62.53
50250;BME280;36133;42.522;27.456;2023-02-14T04:08:59;102684.97;;;0.33;63.07
50250;BME280;36133;42.522;27.456;2023-02-14T04:11:25;102568.78;;;-0.19;61.84
50250;BME280;36133;42.522;27.456;2023-02-14T04:13:51;102521.53;;;-0.12;61.61
50250;BME280;36133;42.522;27.456;2023-02-14T04:16:16;102559.16;;;-0.21;61.79
50250;BME280;36133;42.522;27.456;2023-02-14T04:18:42;102470.28;;;-0.50;62.30
50250;BME280;36133;42.522;27.456;2023-02-14T04:21:26;102661.56;;;0.58;61.72
50250;BME280;36133;42.522;27.456;2023-02-14T04:23:51;102595.25;;;0.02;61.98
50250;BME280;36133;42.522;27.456;2023-02-14T04:26:17;102700.22;;;0.82;62.33
50250;BME280;36133;42.522;27.456;2023-02-14T04:28:42;102356.94;;;-1.21;62.33
50250;BME280;36133;42.522;27.456;2023-02-14T04:31:08;102586.78;;;0.47;61.08
50250;BME280;36133;42.522;27.456;2023-02-14T04:33:35;102690.78;;;1.29;61.02
50250;BME280;36133;42.522;27.456;2023-02-14T04:36:01;102629.69;;;1.10;60.48
50250;BME280;36133;42.522;27.456;2023-02-14T04:38:26;102650.97;;;1.60;59.11
50250;BME280;36133;42.522;27.456;2023-02-14T04:40:52;102579.16;;;1.26;58.75
50250;BME280;36133;42.522;27.456;2023-02-14T04:43:18;102426.63;;;0.09;58.75
50250;BME280;36133;42.522;27.456;2023-02-14T04:45:43;102336.81;;;-0.89;59.93
50250;BME280;36133;42.522;27.456;2023-02-14T04:48:09;102678.97;;;1.34;59.59
50250;BME280;36133;42.522;27.456;2023-02-14T04:50:35;102524.25;;;0.57;58.57
50250;BME280;36133;42.522;27.456;2023-02-14T04:53:00;102686.56;;;1.91;58.21
50250;BME280;36133;42.522;27.456;2023-02-14T04:55:26;102523.00;;;1.14;57.20
50250;BME280;36133;42.522;27.456;2023-02-14T04:57:51;102670.59;;;3.14;54.79
50250;BME280;36133;42.522;27.456;2023-02-14T05:00:17;102408.59;;;1.76;53.76
50250;BME280;36133;42.522;27.456;2023-02-14T05:02:45;102508.53;;;1.36;55.99
50250;BME280;36133;42.522;27.456;2023-02-14T05:05:10;102562.66;;;1.99;55.66
50250;BME280;36133;42.522;27.456;2023-02-14T05:07:36;102696.34;;;2.55;55.39
50250;BME280;36133;42.522;27.456;2023-02-14T05:10:03;102528.19;;;1.65;55.20
50250;BME280;36133;42.522;27.456;2023-02-14T05:12:29;102531.72;;;1.65;55.64
50250;BME280;36133;42.522;27.456;2023-02-14T05:14:54;102355.91;;;0.56;55.32
50250;BME280;36133;42.522;27.456;2023-02-14T05:17:22;102404.97;;;0.51;55.92
50250;BME280;36133;42.522;27.456;2023-02-14T05:19:47;102640.69;;;2.01;55.81
50250;BME280;36133;42.522;27.456;2023-02-14T05:22:13;102683.88;;;2.24;56.65
50250;BME280;36133;42.522;27.456;2023-02-14T05:24:39;102682.47;;;1.85;56.79
50250;BME280;36133;42.522;27.456;2023-02-14T05:27:04;102507.84;;;0.99;56.27
50250;BME280;36133;42.522;27.456;2023-02-14T05:29:29;102491.44;;;1.71;54.24
50250;BME280;36133;42.522;27.456;2023-02-14T05:31:55;102676.78;;;3.30;53.01
50250;BME280;36133;42.522;27.456;2023-02-14T05:34:20;102487.66;;;1.60;54.00
50250;BME280;36133;42.522;27.456;2023-02-14T05:36:46;102484.56;;;2.43;52.72
50250;BME280;36133;42.522;27.456;2023-02-14T05:39:11;102483.44;;;2.47;52.21
50250;BME280;36133;42.522;27.456;2023-02-14T05:41:39;102692.38;;;3.22;52.93
50250;BME280;36133;42.522;27.456;2023-02-14T05:44:05;102699.00;;;3.45;53.28
50250;BME280;36133;42.522;27.456;2023-02-14T05:46:30;102486.63;;;2.68;52.03
50250;BME280;36133;42.522;27.456;2023-02-14T05:48:59;102628.94;;;2.97;53.27
50250;BME280;36133;42.522;27.456;2023-02-14T05:51:24;102693.09;;;4.11;51.72
50250;BME280;36133;42.522;27.456;2023-02-14T05:53:50;102496.97;;;2.58;52.52
50250;BME280;36133;42.522;27.456;2023-02-14T05:56:15;102642.31;;;3.97;50.86
50250;BME280;36133;42.522;27.456;2023-02-14T05:58:41;102686.78;;;4.53;51.00
50250;BME280;36133;42.522;27.456;2023-02-14T06:01:07;102701.31;;;5.03;49.38
50250;BME280;36133;42.522;27.456;2023-02-14T06:03:33;102719.19;;;5.93;47.50
50250;BME280;36133;42.522;27.456;2023-02-14T06:05:58;102684.16;;;6.33;46.71
50250;BME280;36133;42.522;27.456;2023-02-14T06:08:24;102654.75;;;5.82;46.81
50250;BME280;36133;42.522;27.456;2023-02-14T06:10:49;102702.22;;;5.42;47.68
50250;BME280;36133;42.522;27.456;2023-02-14T06:13:15;102525.91;;;4.05;48.49
50250;BME280;36133;42.522;27.456;2023-02-14T06:15:41;102664.31;;;5.35;47.54
50250;BME280;36133;42.522;27.456;2023-02-14T06:18:06;102521.28;;;4.74;46.91
50250;BME280;36133;42.522;27.456;2023-02-14T06:20:32;102659.16;;;4.80;47.76
50250;BME280;36133;42.522;27.456;2023-02-14T06:22:58;102553.03;;;3.99;48.95
50250;BME280;36133;42.522;27.456;2023-02-14T06:25:23;102542.63;;;3.68;49.49
50250;BME280;36133;42.522;27.456;2023-02-14T06:27:50;102379.50;;;2.88;48.91
50250;BME280;36133;42.522;27.456;2023-02-14T06:30:19;102556.66;;;3.98;48.93
50250;BME280;36133;42.522;27.456;2023-02-14T06:32:44;102617.19;;;4.14;49.50
50250;BME280;36133;42.522;27.456;2023-02-14T06:38:32;102688.06;;;5.27;48.58
50250;BME280;36133;42.522;27.456;2023-02-14T06:41:05;102449.59;;;3.60;49.19
50250;BME280;36133;42.522;27.456;2023-02-14T06:43:31;102602.94;;;4.80;48.80
50250;BME280;36133;42.522;27.456;2023-02-14T06:45:57;102624.50;;;4.51;49.69
50250;BME280;36133;42.522;27.456;2023-02-14T06:48:22;102595.22;;;4.62;50.03
50250;BME280;36133;42.522;27.456;2023-02-14T06:50:48;102546.50;;;3.91;51.66
50250;BME280;36133;42.522;27.456;2023-02-14T06:53:13;102571.28;;;4.99;50.02
50250;BME280;36133;42.522;27.456;2023-02-14T06:55:39;102609.63;;;4.99;49.21
50250;BME280;36133;42.522;27.456;2023-02-14T06:58:04;102638.38;;;5.48;48.64
50250;BME280;36133;42.522;27.456;2023-02-14T07:00:30;102577.88;;;6.43;46.25
50250;BME280;36133;42.522;27.456;2023-02-14T07:02:56;102676.94;;;7.05;44.97
50250;BME280;36133;42.522;27.456;2023-02-14T07:05:22;102673.53;;;7.03;45.21
50250;BME280;36133;42.522;27.456;2023-02-14T07:07:47;102682.91;;;6.73;45.56
50250;BME280;36133;42.522;27.456;2023-02-14T07:10:13;102599.53;;;6.40;45.09
50250;BME280;36133;42.522;27.456;2023-02-14T07:12:39;102685.56;;;6.26;46.33
50250;BME280;36133;42.522;27.456;2023-02-14T07:15:06;102642.59;;;5.89;47.01
50250;BME280;36133;42.522;27.456;2023-02-14T07:17:32;102442.31;;;5.05;46.38
50250;BME280;36133;42.522;27.456;2023-02-14T07:19:57;102396.25;;;5.13;45.51
50250;BME280;36133;42.522;27.456;2023-02-14T07:22:23;102545.66;;;5.46;46.49
50250;BME280;36133;42.522;27.456;2023-02-14T07:24:48;102624.53;;;6.40;46.37
50250;BME280;36133;42.522;27.456;2023-02-14T07:30:38;102636.53;;;6.71;45.65
50250;BME280;36133;42.522;27.456;2023-02-14T07:33:25;102675.84;;;8.10;44.55
50250;BME280;36133;42.522;27.456;2023-02-14T07:35:51;102669.81;;;8.51;42.69
50250;BME280;36133;42.522;27.456;2023-02-14T07:38:17;102679.16;;;8.79;42.84
50250;BME280;36133;42.522;27.456;2023-02-14T07:40:42;102579.53;;;7.81;42.84
50250;BME280;36133;42.522;27.456;2023-02-14T07:43:10;102571.31;;;8.69;40.72
50250;BME280;36133;42.522;27.456;2023-02-14T07:45:36;102634.69;;;9.47;40.29
50250;BME280;36133;42.522;27.456;2023-02-14T07:48:02;102674.84;;;10.42;38.22
50250;BME280;36133;42.522;27.456;2023-02-14T07:50:59;102679.34;;;10.01;39.47
50250;BME280;36133;42.522;27.456;2023-02-14T07:53:25;102559.94;;;9.68;38.87
50250;BME280;36133;42.522;27.456;2023-02-14T07:55:51;102680.28;;;11.19;36.68
50250;BME280;36133;42.522;27.456;2023-02-14T07:58:17;102670.91;;;11.70;35.72
50250;BME280;36133;42.522;27.456;2023-02-14T08:00:46;102673.31;;;11.73;36.74
50250;BME280;36133;42.522;27.456;2023-02-14T08:03:12;102577.34;;;12.40;34.57
50250;BME280;36133;42.522;27.456;2023-02-14T08:05:38;102657.34;;;13.41;33.70
50250;BME280;36133;42.522;27.456;2023-02-14T08:08:03;102660.72;;;13.35;33.64
50250;BME280;36133;42.522;27.456;2023-02-14T08:10:29;102647.75;;;12.85;34.47
50250;BME280;36133;42.522;27.456;2023-02-14T08:12:55;102663.19;;;13.29;33.91
50250;BME280;36133;42.522;27.456;2023-02-14T08:15:32;102659.47;;;13.12;33.75
50250;BME280;36133;42.522;27.456;2023-02-14T08:18:18;102610.00;;;13.36;32.88
50250;BME280;36133;42.522;27.456;2023-02-14T08:20:45;102654.81;;;13.04;34.49
50250;BME280;36133;42.522;27.456;2023-02-14T08:23:22;102543.50;;;14.41;31.67
50250;BME280;36133;42.522;27.456;2023-02-14T08:25:48;102580.78;;;14.56;30.83
50250;BME280;36133;42.522;27.456;2023-02-14T08:28:14;102619.78;;;15.61;30.33
50250;BME280;36133;42.522;27.456;2023-02-14T08:30:41;102454.44;;;16.99;27.80
50250;BME280;36133;42.522;27.456;2023-02-14T08:33:07;102487.97;;;17.22;27.02
50250;BME280;36133;42.522;27.456;2023-02-14T08:35:34;102546.22;;;16.54;28.07
50250;BME280;36133;42.522;27.456;2023-02-14T08:38:00;102632.09;;;15.16;31.31
50250;BME280;36133;42.522;27.456;2023-02-14T08:40:25;102543.41;;;14.67;31.10
50250;BME280;36133;42.522;27.456;2023-02-14T08:42:52;102408.59;;;13.50;31.80
50250;BME280;36133;42.522;27.456;2023-02-14T08:45:18;102372.22;;;12.84;31.81
50250;BME280;36133;42.522;27.456;2023-02-14T08:47:44;102039.97;;;11.83;30.69
50250;BME280;36133;42.522;27.456;2023-02-14T08:50:12;102203.19;;;12.09;31.27
50250;BME280;36133;42.522;27.456;2023-02-14T08:52:39;102332.44;;;13.52;30.84
50250;BME280;36133;42.522;27.456;2023-02-14T08:55:06;102346.91;;;16.49;27.47
50250;BME280;36133;42.522;27.456;2023-02-14T08:57:31;102522.28;;;16.64;28.30
50250;BME280;36133;42.522;27.456;2023-02-14T09:00:00;102618.22;;;15.59;30.34
50250;BME280;36133;42.522;27.456;2023-02-14T09:02:25;102554.75;;;16.05;29.61
50250;BME280;36133;42.522;27.456;2023-02-14T09:04:51;102485.47;;;16.83;27.95
50250;BME280;36133;42.522;27.456;2023-02-14T09:07:16;102561.84;;;18.16;26.91
50250;BME280;36133;42.522;27.456;2023-02-14T09:09:42;102545.00;;;16.57;29.10
50250;BME280;36133;42.522;27.456;2023-02-14T09:12:09;102597.78;;;15.79;30.44
50250;BME280;36133;42.522;27.456;2023-02-14T09:14:36;102524.63;;;15.12;30.91
50250;BME280;36133;42.522;27.456;2023-02-14T09:17:03;102593.19;;;16.41;29.72
50250;BME280;36133;42.522;27.456;2023-02-14T09:19:34;102543.59;;;15.84;30.47
50250;BME280;36133;42.522;27.456;2023-02-14T09:22:00;102507.13;;;18.09;27.61
50250;BME280;36133;42.522;27.456;2023-02-14T09:24:32;102579.78;;;18.04;27.29
50250;BME280;36133;42.522;27.456;2023-02-14T09:26:59;102568.66;;;19.40;26.18
50250;BME280;36133;42.522;27.456;2023-02-14T09:29:26;102572.53;;;18.90;26.83
50250;BME280;36133;42.522;27.456;2023-02-14T09:31:53;102258.84;;;15.81;28.29
50250;BME280;36133;42.522;27.456;2023-02-14T09:34:22;102233.50;;;16.55;27.51
50250;BME280;36133;42.522;27.456;2023-02-14T09:36:48;102053.84;;;19.92;22.92
50250;BME280;36133;42.522;27.456;2023-02-14T09:39:14;102498.25;;;26.69;19.54
50250;BME280;36133;42.522;27.456;2023-02-14T09:44:25;102545.00;;;22.12;22.99
50250;BME280;36133;42.522;27.456;2023-02-14T09:46:54;102518.56;;;26.41;19.12
50250;BME280;36133;42.522;27.456;2023-02-14T09:49:30;102460.94;;;25.01;19.83
50250;BME280;36133;42.522;27.456;2023-02-14T09:51:58;102526.03;;;22.29;22.57
50250;BME280;36133;42.522;27.456;2023-02-14T09:54:27;102498.28;;;21.60;23.17
50250;BME280;36133;42.522;27.456;2023-02-14T10:00:33;102516.44;;;19.48;25.30
50250;BME280;36133;42.522;27.456;2023-02-14T10:03:00;102516.66;;;22.11;22.44
50250;BME280;36133;42.522;27.456;2023-02-14T10:05:41;102288.91;;;21.95;21.76
50250;BME280;36133;42.522;27.456;2023-02-14T10:11:16;102434.91;;;20.64;23.26
50250;BME280;36133;42.522;27.456;2023-02-14T10:13:52;102472.53;;;22.99;21.41
50250;BME280;36133;42.522;27.456;2023-02-14T10:16:29;102490.31;;;23.03;21.42
50250;BME280;36133;42.522;27.456;2023-02-14T10:21:33;102476.88;;;24.99;20.08
50250;BME280;36133;42.522;27.456;2023-02-14T10:26:38;102459.75;;;20.03;23.89
50250;BME280;36133;42.522;27.456;2023-02-14T10:29:14;102416.88;;;19.69;24.55
50250;BME280;36133;42.522;27.456;2023-02-14T10:31:57;102473.84;;;22.72;21.76
50250;BME280;36133;42.522;27.456;2023-02-14T10:34:46;102436.34;;;21.58;22.45
50250;BME280;36133;42.522;27.456;2023-02-14T10:45:21;102491.00;;;17.78;26.34
50250;BME280;36133;42.522;27.456;2023-02-14T10:58:05;102439.56;;;20.64;23.73
50250;BME280;36133;42.522;27.456;2023-02-14T11:00:37;102226.00;;;18.48;24.13
50250;BME280;36133;42.522;27.456;2023-02-14T11:03:07;102417.94;;;18.79;25.21
50250;BME280;36133;42.522;27.456;2023-02-14T11:05:37;102426.59;;;18.33;25.55
50250;BME280;36133;42.522;27.456;2023-02-14T11:08:32;102352.81;;;18.68;24.97
50250;BME280;36133;42.522;27.456;2023-02-14T11:11:29;102382.75;;;20.64;23.42
50250;BME280;36133;42.522;27.456;2023-02-14T11:13:56;102431.81;;;22.02;22.14
50250;BME280;36133;42.522;27.456;2023-02-14T11:16:35;102391.69;;;22.26;21.77
50250;BME280;36133;42.522;27.456;2023-02-14T11:21:43;102331.94;;;23.24;20.59
50250;BME280;36133;42.522;27.456;2023-02-14T11:24:32;102419.75;;;23.21;21.17
50250;BME280;36133;42.522;27.456;2023-02-14T11:26:59;102419.63;;;21.91;22.29
50250;BME280;36133;42.522;27.456;2023-02-14T11:29:32;102343.19;;;21.75;21.68
50250;BME280;36133;42.522;27.456;2023-02-14T11:32:13;102385.34;;;22.25;22.11
50250;BME280;36133;42.522;27.456;2023-02-14T11:35:19;102218.25;;;20.76;22.07
50250;BME280;36133;42.522;27.456;2023-02-14T11:37:50;102338.97;;;20.89;22.32
50250;BME280;36133;42.522;27.456;2023-02-14T11:40:36;102260.03;;;20.85;22.58
50250;BME280;36133;42.522;27.456;2023-02-14T11:43:19;102384.41;;;21.81;22.10
50250;BME280;36133;42.522;27.456;2023-02-14T11:51:25;102357.38;;;18.61;25.13
50250;BME280;36133;42.522;27.456;2023-02-14T11:53:54;102345.84;;;20.47;23.63
50250;BME280;36133;42.522;27.456;2023-02-14T11:56:21;102288.25;;;21.68;22.07
50250;BME280;36133;42.522;27.456;2023-02-14T11:58:59;102350.91;;;19.71;23.54
50250;BME280;36133;42.522;27.456;2023-02-14T12:01:32;102352.59;;;19.78;23.82
50250;BME280;36133;42.522;27.456;2023-02-14T12:04:03;102360.63;;;18.78;25.05
50250;BME280;36133;42.522;27.456;2023-02-14T12:06:31;102362.34;;;21.12;22.77
50250;BME280;36133;42.522;27.456;2023-02-14T12:12:00;102340.38;;;20.01;23.52
50250;BME280;36133;42.522;27.456;2023-02-14T12:14:29;102385.78;;;18.60;24.31
50250;BME280;36133;42.522;27.456;2023-02-14T12:17:17;102203.53;;;16.40;26.15
50250;BME280;36133;42.522;27.456;2023-02-14T12:20:14;102388.16;;;19.04;25.17
50250;BME280;36133;42.522;27.456;2023-02-14T12:23:03;102387.19;;;19.25;24.61
50250;BME280;36133;42.522;27.456;2023-02-14T12:25:50;102295.00;;;18.84;24.06
50250;BME280;36133;42.522;27.456;2023-02-14T12:28:23;102363.78;;;20.43;23.18
50250;BME280;36133;42.522;27.456;2023-02-14T12:30:52;102394.03;;;21.07;22.67
50250;BME280;36133;42.522;27.456;2023-02-14T12:33:20;102257.59;;;21.08;22.42
50250;BME280;36133;42.522;27.456;2023-02-14T12:39:06;102354.38;;;22.05;21.81
50250;BME280;36133;42.522;27.456;2023-02-14T12:44:37;102377.47;;;19.64;22.90
50250;BME280;36133;42.522;27.456;2023-02-14T12:47:26;102184.38;;;17.76;23.78
50250;BME280;36133;42.522;27.456;2023-02-14T12:55:33;102344.97;;;15.82;26.55
50250;BME280;36133;42.522;27.456;2023-02-14T13:08:43;102244.59;;;13.53;28.45
50250;BME280;36133;42.522;27.456;2023-02-14T13:11:49;102414.63;;;15.46;27.89
50250;BME280;36133;42.522;27.456;2023-02-14T13:16:58;102298.00;;;16.77;24.90
50250;BME280;36133;42.522;27.456;2023-02-14T13:22:45;102356.97;;;18.64;23.77
50250;BME280;36133;42.522;27.456;2023-02-14T13:25:24;102311.44;;;20.38;21.92
50250;BME280;36133;42.522;27.456;2023-02-14T13:28:04;102365.38;;;18.97;23.73
50250;BME280;36133;42.522;27.456;2023-02-14T13:30:32;102114.59;;;18.15;23.07
50250;BME280;36133;42.522;27.456;2023-02-14T13:33:06;102358.75;;;20.00;22.96
50250;BME280;36133;42.522;27.456;2023-02-14T13:35:32;102334.56;;;18.47;24.76
50250;BME280;36133;42.522;27.456;2023-02-14T13:38:12;102328.94;;;18.55;25.17
50250;BME280;36133;42.522;27.456;2023-02-14T13:40:40;102343.72;;;19.70;24.16
50250;BME280;36133;42.522;27.456;2023-02-14T13:43:09;102298.53;;;18.37;25.17
50250;BME280;36133;42.522;27.456;2023-02-14T13:45:49;102351.34;;;18.16;26.18
50250;BME280;36133;42.522;27.456;2023-02-14T13:51:03;102353.84;;;16.52;28.00
50250;BME280;36133;42.522;27.456;2023-02-14T13:53:36;102357.72;;;15.82;29.12
50250;BME280;36133;42.522;27.456;2023-02-14T13:59:00;102369.34;;;14.83;30.15
50250;BME280;36133;42.522;27.456;2023-02-14T14:20:41;102338.28;;;15.85;29.43
50250;BME280;36133;42.522;27.456;2023-02-14T14:23:30;102122.50;;;14.70;28.48
50250;BME280;36133;42.522;27.456;2023-02-14T14:25:56;102132.16;;;15.33;27.96
50250;BME280;36133;42.522;27.456;2023-02-14T14:28:24;102324.09;;;16.13;28.49
50250;BME280;36133;42.522;27.456;2023-02-14T14:30:50;102363.34;;;16.03;29.33
50250;BME280;36133;42.522;27.456;2023-02-14T14:33:33;102117.25;;;13.18;30.83
50250;BME280;36133;42.522;27.456;2023-02-14T14:36:04;101913.56;;;11.59;31.51
50250;BME280;36133;42.522;27.456;2023-02-14T14:38:49;102176.53;;;12.73;32.24
50250;BME280;36133;42.522;27.456;2023-02-14T14:41:15;102272.06;;;13.33;32.58
50250;BME280;36133;42.522;27.456;2023-02-14T14:43:41;102048.81;;;11.93;32.94
50250;BME280;36133;42.522;27.456;2023-02-14T14:46:11;102322.44;;;14.09;32.39
50250;BME280;36133;42.522;27.456;2023-02-14T14:48:39;102373.13;;;13.01;34.23
50250;BME280;36133;42.522;27.456;2023-02-14T14:51:08;102260.56;;;12.89;33.44
50250;BME280;36133;42.522;27.456;2023-02-14T14:53:53;101869.13;;;10.43;33.56
50250;BME280;36133;42.522;27.456;2023-02-14T14:56:26;102190.91;;;11.89;34.58
50250;BME280;36133;42.522;27.456;2023-02-14T14:58:52;101854.59;;;9.64;34.82
50250;BME280;36133;42.522;27.456;2023-02-14T15:01:34;102144.63;;;12.08;33.77
50250;BME280;36133;42.522;27.456;2023-02-14T15:04:27;102148.53;;;12.48;33.58
50250;BME280;36133;42.522;27.456;2023-02-14T15:06:57;102375.19;;;13.07;34.39
50250;BME280;36133;42.522;27.456;2023-02-14T15:09:41;102329.22;;;12.55;34.58
50250;BME280;36133;42.522;27.456;2023-02-14T15:12:08;102062.34;;;11.59;34.04
50250;BME280;36133;42.522;27.456;2023-02-14T15:14:54;102008.88;;;10.49;34.74
50250;BME280;36133;42.522;27.456;2023-02-14T15:17:24;102366.84;;;13.43;33.23
50250;BME280;36133;42.522;27.456;2023-02-14T15:19:54;101960.97;;;10.77;34.10
50250;BME280;36133;42.522;27.456;2023-02-14T15:22:32;102021.53;;;10.66;34.59